Date,TemperatureHighF,TemperatureAvgF,TemperatureLowF,DewpointHighF,DewpointAvgF,DewpointLowF,HumidityHigh,HumidityAvg,HumidityLow,PressureMaxIn,PressureMinIn,WindSpeedMaxMPH,WindSpeedAvgMPH,GustSpeedMaxMPH,PrecipitationSumIn
2013-8-1,68.3,57.1,50.7,35.5,24.0,13.2,52,30,14,29.94,29.83,28,9,31,0.00
2013-8-2,68.3,57.8,47.7,34.8,22.4,12.5,50,27,14,29.92,29.80,22,5,26,0.00
2013-8-3,71.5,60.4,51.0,41.2,34.3,26.5,66,40,19,29.90,29.80,20,4,23,0.00
2013-8-4,75.3,62.8,52.3,38.6,32.9,19.0,57,35,16,29.92,29.80,20,5,25,0.00
2013-8-5,73.2,62.3,53.3,40.2,30.4,12.8,54,32,13,29.93,29.82,22,6,26,0.00
2013-8-6,77.0,62.9,54.5,40.0,32.7,18.1,53,35,13,29.91,29.78,19,6,24,0.00
2013-8-7,65.8,58.2,51.3,40.2,34.6,28.4,61,42,26,29.92,29.77,26,11,30,0.00
2013-8-8,64.7,55.9,48.8,39.7,35.3,23.2,61,47,23,29.89,29.79,21,6,23,0.00
2013-8-9,66.1,56.1,49.4,39.2,34.2,25.8,59,45,24,29.87,29.75,30,5,32,0.00
2013-8-10,64.8,55.2,46.8,39.4,28.1,20.8,58,36,22,29.97,29.84,28,8,31,0.00
2013-8-11,68.8,58.2,49.2,39.5,31.2,22.3,60,37,20,29.96,29.83,27,5,29,0.00
2013-8-12,69.3,59.6,51.3,38.0,31.0,19.0,57,35,19,29.93,29.82,31,6,31,0.00
2013-8-13,74.0,62.0,52.8,34.2,27.5,20.4,43,28,16,29.97,29.83,24,4,26,0.00
2013-8-14,77.2,64.5,54.8,36.4,25.5,9.7,47,24,10,29.93,29.76,22,5,27,0.00
2013-8-15,72.8,63.5,55.9,39.6,21.9,10.7,53,21,10,29.90,29.76,25,7,29,0.00
2013-8-16,73.2,63.4,55.6,34.3,22.0,11.7,34,21,14,29.96,29.83,24,8,26,0.00
2013-8-17,74.9,65.7,57.3,40.5,35.1,30.0,42,33,22,29.92,29.76,20,3,22,0.00
2013-8-18,84.3,69.7,59.3,38.3,32.5,26.2,41,26,13,29.85,29.73,17,3,19,0.00
2013-8-19,74.6,66.9,62.1,48.2,40.6,35.5,53,38,30,29.87,29.70,15,2,15,0.00
2013-8-20,76.0,64.7,59.5,53.9,40.7,34.3,65,43,24,29.85,29.72,21,4,26,0.06
2013-8-21,77.6,61.1,54.4,57.6,46.3,37.9,88,60,25,29.94,29.76,15,3,26,0.29
2013-8-22,71.1,61.5,54.5,46.0,37.5,28.5,70,44,21,29.95,29.76,18,3,21,0.00
2013-8-23,66.3,59.3,54.1,36.7,30.3,22.5,47,34,23,29.83,29.72,21,5,28,0.00
2013-8-24,66.4,57.1,50.4,37.5,27.5,16.5,56,33,20,29.82,29.71,21,6,26,0.00
2013-8-25,65.0,55.8,50.4,39.9,33.4,25.9,66,43,32,29.89,29.77,23,4,27,0.00
2013-8-26,67.8,58.2,51.6,41.2,33.7,27.4,58,41,24,29.95,29.81,21,5,25,0.00
2013-8-27,70.3,59.5,54.1,43.0,34.3,23.6,59,40,25,29.86,29.73,16,3,21,0.00
2013-8-28,70.1,60.7,54.4,48.3,43.2,35.9,69,53,39,29.86,29.75,20,4,24,0.00
2013-8-29,71.3,62.0,54.8,40.1,35.5,28.4,55,38,22,29.98,29.79,25,4,26,0.00
2013-8-30,76.7,65.3,57.3,37.8,30.9,24.7,37,28,15,30.01,29.85,23,6,25,0.00
2013-8-31,74.7,66.0,60.9,38.0,32.1,24.8,38,28,22,29.91,29.77,25,8,25,0.00